Time;durP1;ratioP1;P1;durP2;ratioP2;P2;SDS_P1;SDS_P2;PMS_P1;PMS_P2;Temp;Humidity;BMP_temperature;BMP_pressure;BME280_temperature;BME280_humidity;BME280_pressure;Samples;Min_cycle;Max_cycle;Signal;HPM_P1;HPM_P2
2021/09/04 00:00:37;;;;;;;6.75;4.28;;;;;;;15.57;61.31;98952.05;1782863;80;21833;-41
2021/09/04 00:03:04;;;;;;;7.58;4.50;;;;;;;15.54;61.31;98959.70;1760538;80;20976;-41
2021/09/04 00:05:31;;;;;;;7.03;4.62;;;;;;;15.53;61.47;98956.77;1782634;80;20981;-41
2021/09/04 00:07:57;;;;;;;5.75;4.08;;;;;;;15.56;61.48;98954.59;1782052;80;20941;-41
2021/09/04 00:10:25;;;;;;;6.62;4.35;;;;;;;15.58;61.67;98957.13;1782424;80;22167;-41
2021/09/04 00:12:52;;;;;;;6.90;4.03;;;;;;;15.58;61.60;98957.71;1782073;80;21147;-41
2021/09/04 00:15:20;;;;;;;8.53;4.25;;;;;;;15.57;61.57;98957.52;1781456;80;21004;-41
2021/09/04 00:17:47;;;;;;;6.10;4.72;;;;;;;15.54;61.51;98959.70;1781996;80;20996;-41
2021/09/04 00:20:18;;;;;;;8.20;4.85;;;;;;;15.53;61.72;98959.50;1782141;80;20970;-41
2021/09/04 00:22:43;;;;;;;7.75;4.92;;;;;;;15.51;62.06;98960.48;1781044;79;21350;-41
2021/09/04 00:25:11;;;;;;;6.85;4.62;;;;;;;15.48;62.08;98965.37;1775767;80;21795;-41
2021/09/04 00:27:37;;;;;;;6.87;4.65;;;;;;;15.44;62.13;98958.54;1772817;80;21006;-41
2021/09/04 00:30:05;;;;;;;6.90;4.20;;;;;;;15.43;62.35;98958.38;1782470;80;21008;-41
2021/09/04 00:32:33;;;;;;;;;;;;;;;15.47;62.32;98963.22;1785080;80;21503;-41
2021/09/04 00:35:01;;;;;;;7.97;4.72;;;;;;;15.52;62.52;98973.75;1763763;80;20105;-41
2021/09/04 00:37:27;;;;;;;9.23;4.65;;;;;;;15.43;62.53;98968.52;1782495;80;21142;-41
2021/09/04 00:39:55;;;;;;;6.47;4.65;;;;;;;15.45;62.58;98962.05;1758905;80;20925;-41
2021/09/04 00:42:22;;;;;;;8.40;4.78;;;;;;;15.41;62.59;98955.84;1761372;80;21573;-41
2021/09/04 00:44:49;;;;;;;9.48;4.62;;;;;;;15.36;62.62;98944.75;1782158;80;21037;-41
2021/09/04 00:47:15;;;;;;;8.43;5.33;;;;;;;15.35;62.79;98957.44;1782464;80;21009;-41
2021/09/04 00:49:41;;;;;;;9.50;5.03;;;;;;;15.34;63.02;98960.78;1781542;80;21108;-41
2021/09/04 00:52:09;;;;;;;7.53;4.95;;;;;;;15.37;62.87;98965.44;1781995;80;21539;-41
2021/09/04 00:54:35;;;;;;;9.43;4.70;;;;;;;15.41;62.66;98964.03;1774602;80;21538;-41
2021/09/04 00:57:04;;;;;;;6.95;4.95;;;;;;;15.43;62.61;98960.33;1773871;80;20895;-41
2021/09/04 00:59:32;;;;;;;8.95;5.00;;;;;;;15.44;62.40;98967.34;1774307;80;21064;-41
2021/09/04 01:02:00;;;;;;;7.65;5.00;;;;;;;15.41;62.49;98961.30;1761129;80;21094;-41
2021/09/04 01:04:27;;;;;;;8.83;5.33;;;;;;;15.38;62.85;98969.73;1766375;80;21024;-41
2021/09/04 01:06:57;;;;;;;10.98;5.47;;;;;;;15.35;62.70;98971.87;1763605;80;20969;-40
2021/09/04 01:09:23;;;;;;;8.25;4.87;;;;;;;15.34;62.67;98970.93;1774087;80;21521;-41
2021/09/04 01:11:52;;;;;;;7.35;4.92;;;;;;;15.29;62.76;98972.72;1767168;80;20973;-41
2021/09/04 01:14:19;;;;;;;7.40;5.12;;;;;;;15.26;62.80;98972.13;1762781;80;21139;-41
2021/09/04 01:16:46;;;;;;;9.53;5.15;;;;;;;15.28;62.78;98971.16;1753968;80;21024;-41
2021/09/04 01:19:12;;;;;;;7.12;4.97;;;;;;;15.33;62.72;98966.05;1743356;82;21004;-41
2021/09/04 01:21:39;;;;;;;7.20;5.00;;;;;;;15.35;62.81;98960.95;1759071;80;21092;-41
2021/09/04 01:24:07;;;;;;;9.03;5.37;;;;;;;15.34;62.83;98965.47;1707445;84;21037;-41
2021/09/04 01:26:33;;;;;;;8.13;4.87;;;;;;;15.33;62.89;98970.73;1773890;80;21339;-41
2021/09/04 01:29:01;;;;;;;8.60;5.55;;;;;;;15.32;62.89;98967.81;1773873;80;21472;-41
2021/09/04 01:31:28;;;;;;;8.28;5.17;;;;;;;15.29;62.87;98965.30;1773464;80;20970;-41
2021/09/04 01:33:54;;;;;;;8.13;5.12;;;;;;;15.29;63.05;98973.50;1773731;80;21516;-41
2021/09/04 01:36:34;;;;;;;9.40;5.37;;;;;;;15.26;62.85;98972.13;1774178;80;20962;-41
2021/09/04 01:39:01;;;;;;;7.22;4.65;;;;;;;15.19;62.99;98977.84;1773845;80;21790;-41
2021/09/04 01:41:28;;;;;;;7.42;5.08;;;;;;;15.13;63.15;98978.07;1771215;80;21001;-41
2021/09/04 01:43:55;;;;;;;8.60;5.20;;;;;;;15.14;63.20;98982.36;1768437;80;20918;-41
2021/09/04 01:46:21;;;;;;;9.45;5.12;;;;;;;15.14;63.19;98975.53;1773888;80;21245;-41
2021/09/04 01:48:48;;;;;;;9.58;5.28;;;;;;;15.09;63.29;98975.95;1773759;80;21014;-41
2021/09/04 01:51:16;;;;;;;8.68;5.35;;;;;;;15.07;63.44;98978.29;1774121;79;21104;-42
2021/09/04 01:53:43;;;;;;;10.45;5.97;;;;;;;15.04;63.49;98981.83;1772621;80;20994;-41
2021/09/04 01:56:10;;;;;;;8.18;5.70;;;;;;;14.99;63.69;98984.97;1712263;83;21794;-41
2021/09/04 01:58:38;;;;;;;8.80;5.47;;;;;;;14.93;63.88;98983.82;1782345;80;21017;-41
2021/09/04 02:01:07;;;;;;;10.15;5.37;;;;;;;14.86;64.04;98979.78;1774441;80;21060;-41
2021/09/04 02:03:36;;;;;;;6.97;5.08;;;;;;;14.82;64.17;98984.45;1782071;80;21130;-41
2021/09/04 02:06:03;;;;;;;8.28;5.03;;;;;;;14.84;64.40;98980.75;1781865;80;21030;-41
2021/09/04 02:08:32;;;;;;;11.13;6.13;;;;;;;14.87;64.46;98980.53;1782479;80;20992;-41
2021/09/04 02:10:59;;;;;;;8.25;5.33;;;;;;;14.83;64.67;98975.09;1777460;80;21033;-41
2021/09/04 02:13:27;;;;;;;8.70;5.90;;;;;;;14.85;64.83;98986.98;1778320;80;21049;-40
2021/09/04 02:15:54;;;;;;;8.75;5.45;;;;;;;14.90;64.81;98992.03;1781806;80;21830;-41
2021/09/04 02:18:25;;;;;;;8.75;5.72;;;;;;;14.88;64.72;98988.33;1781911;80;21016;-41
2021/09/04 02:20:53;;;;;;;7.80;5.37;;;;;;;14.86;64.87;98992.64;1782060;80;21482;-41
2021/09/04 02:23:21;;;;;;;7.92;5.05;;;;;;;14.85;65.01;98989.13;1779470;80;20973;-41
2021/09/04 02:25:48;;;;;;;7.78;5.50;;;;;;;14.88;65.11;98988.33;1774162;80;21068;-41
2021/09/04 02:28:15;;;;;;;9.03;5.83;;;;;;;14.95;65.11;98980.13;1781968;80;21166;-41
2021/09/04 02:30:43;;;;;;;7.67;5.53;;;;;;;15.01;65.19;98979.09;1781800;80;21004;-41
2021/09/04 02:33:10;;;;;;;8.03;5.42;;;;;;;15.05;65.13;98975.78;1775714;80;21600;-41
2021/09/04 02:35:38;;;;;;;12.70;6.12;;;;;;;15.08;65.14;98973.02;1781394;80;21049;-41
2021/09/04 02:38:08;;;;;;;8.90;5.72;;;;;;;15.10;65.09;98972.64;1752847;80;21037;-41
2021/09/04 02:40:36;;;;;;;9.15;5.58;;;;;;;15.08;65.21;98969.52;1763404;80;21876;-41
2021/09/04 02:43:03;;;;;;;8.28;5.47;;;;;;;15.08;65.30;98967.56;1776488;80;21020;-41
2021/09/04 02:45:32;;;;;;;9.18;5.37;;;;;;;15.10;65.34;98967.92;1782244;80;20933;-41
2021/09/04 02:47:58;;;;;;;10.78;7.17;;;;;;;15.11;65.41;98966.76;1781917;80;20989;-41
2021/09/04 02:50:26;;;;;;;9.70;7.50;;;;;;;15.11;65.37;98976.31;1781936;80;21072;-41
2021/09/04 02:52:53;;;;;;;9.90;6.90;;;;;;;15.09;65.39;98993.70;1779837;80;21135;-41
2021/09/04 02:55:20;;;;;;;10.85;6.97;;;;;;;15.06;65.47;98997.20;1779955;80;21009;-41
2021/09/04 02:57:48;;;;;;;8.83;6.17;;;;;;;15.02;65.55;99003.27;1751234;82;21019;-41
2021/09/04 03:00:15;;;;;;;9.28;5.67;;;;;;;14.94;65.74;98999.03;1764081;79;21037;-41
2021/09/04 03:02:45;;;;;;;8.58;5.58;;;;;;;14.87;65.99;99009.97;1759333;79;21008;-41
2021/09/04 03:05:10;;;;;;;9.28;6.25;;;;;;;14.90;66.12;99022.84;1761857;80;21111;-41
2021/09/04 03:07:37;;;;;;;10.18;5.83;;;;;;;14.91;66.18;99023.01;1776415;80;21027;-41
2021/09/04 03:10:06;;;;;;;9.25;5.92;;;;;;;14.87;66.32;99024.98;1781786;80;21515;-40
2021/09/04 03:12:32;;;;;;;8.55;5.85;;;;;;;14.84;66.46;99024.41;1780196;80;21563;-41
2021/09/04 03:14:59;;;;;;;8.70;6.35;;;;;;;14.83;66.54;99039.81;1782309;80;21088;-41
2021/09/04 03:17:28;;;;;;;8.38;4.95;;;;;;;14.78;66.68;99049.19;1781816;80;21085;-40
2021/09/04 03:19:55;;;;;;;7.90;5.65;;;;;;;14.77;66.77;99051.72;1779173;80;22112;-41
2021/09/04 03:22:22;;;;;;;7.72;5.37;;;;;;;14.80;66.82;99057.77;1778080;80;21021;-40
2021/09/04 03:24:49;;;;;;;8.53;5.90;;;;;;;14.82;66.80;99055.41;1771057;80;20981;-41
2021/09/04 03:27:16;;;;;;;6.62;5.25;;;;;;;14.84;66.87;99055.80;1771112;80;21029;-41
2021/09/04 03:29:43;;;;;;;9.20;5.50;;;;;;;14.84;66.79;99053.08;1782573;80;21729;-41
2021/09/04 03:32:10;;;;;;;8.58;5.65;;;;;;;14.79;66.78;99063.03;1735672;82;21058;-41
2021/09/04 03:34:37;;;;;;;7.67;5.33;;;;;;;14.73;66.97;99063.23;1736550;82;21480;-41
2021/09/04 03:37:06;;;;;;;10.80;5.00;;;;;;;14.69;67.11;99072.02;1744543;82;21586;-40
2021/09/04 03:39:33;;;;;;;7.30;5.05;;;;;;;14.69;67.16;99071.44;1744669;82;21097;-41
2021/09/04 03:42:01;;;;;;;9.73;4.97;;;;;;;14.66;67.32;99076.33;1779634;80;21831;-41
2021/09/04 03:44:28;;;;;;;8.78;4.92;;;;;;;14.65;67.45;99078.08;1780397;80;21072;-41
2021/09/04 03:46:55;;;;;;;6.55;4.95;;;;;;;14.65;67.53;99083.53;1782232;80;21531;-40
2021/09/04 03:49:22;;;;;;;6.35;4.97;;;;;;;14.65;67.45;99090.35;1781922;80;21080;-41
2021/09/04 03:51:50;;;;;;;6.65;3.58;;;;;;;14.60;67.48;99093.48;1784002;80;21063;-40
2021/09/04 03:54:18;;;;;;;6.03;4.12;;;;;;;14.56;67.56;99092.70;1783127;80;21136;-40
2021/09/04 03:56:46;;;;;;;7.22;3.85;;;;;;;14.56;67.64;99098.95;1781984;80;20961;-41
2021/09/04 03:59:12;;;;;;;9.43;4.40;;;;;;;14.57;67.81;99102.45;1782080;80;21008;-41
2021/09/04 04:01:40;;;;;;;9.75;4.65;;;;;;;14.57;67.85;99097.75;1778479;80;20981;-41
2021/09/04 04:04:08;;;;;;;7.10;4.67;;;;;;;14.57;67.90;99101.09;1751065;82;21633;-40
2021/09/04 04:06:34;;;;;;;8.00;4.15;;;;;;;14.58;67.92;99103.41;1751290;82;21145;-41
2021/09/04 04:09:03;;;;;;;6.30;4.20;;;;;;;14.61;67.84;99106.73;1777259;80;21011;-40
2021/09/04 04:11:31;;;;;;;6.40;3.95;;;;;;;14.65;67.85;99112.96;1780021;80;20961;-40
2021/09/04 04:13:58;;;;;;;5.85;4.03;;;;;;;14.71;67.77;99116.86;1778816;80;21530;-40
2021/09/04 04:16:25;;;;;;;5.37;3.92;;;;;;;14.75;67.79;99114.11;1776045;80;21028;-40
2021/09/04 04:18:52;;;;;;;6.67;4.62;;;;;;;14.76;67.60;99119.16;1760204;80;21813;-40
2021/09/04 04:21:19;;;;;;;7.37;4.25;;;;;;;14.78;67.62;99132.42;1756479;80;20986;-40
2021/09/04 04:23:46;;;;;;;5.92;3.52;;;;;;;14.75;67.50;99134.00;1776090;80;21534;-40
2021/09/04 04:26:13;;;;;;;4.90;3.30;;;;;;;14.73;67.36;99140.42;1744381;80;21008;-40
2021/09/04 04:28:41;;;;;;;6.10;3.40;;;;;;;14.78;67.11;99141.97;1768100;80;21033;-40
2021/09/04 04:31:08;;;;;;;4.30;3.10;;;;;;;14.78;66.86;99150.16;1773273;80;21128;-40
2021/09/04 04:33:34;;;;;;;4.10;2.90;;;;;;;14.78;66.64;99152.30;1781799;80;20949;-40
2021/09/04 04:36:04;;;;;;;3.67;2.90;;;;;;;14.78;66.38;99158.34;1781787;80;20981;-40
2021/09/04 04:38:30;;;;;;;3.92;2.62;;;;;;;14.77;66.15;99163.60;1781894;80;21020;-40
2021/09/04 04:40:57;;;;;;;4.17;2.60;;;;;;;14.74;65.70;99163.03;1783461;80;21008;-40
2021/09/04 04:43:23;;;;;;;2.60;2.08;;;;;;;14.72;65.52;99166.72;1782349;80;21144;-40
2021/09/04 04:45:50;;;;;;;2.92;1.87;;;;;;;14.74;65.25;99163.03;1781778;80;20957;-40
2021/09/04 04:48:19;;;;;;;3.17;2.30;;;;;;;14.76;65.25;99170.25;1782333;80;20975;-40
2021/09/04 04:50:46;;;;;;;3.42;2.08;;;;;;;14.76;65.12;99172.38;1784656;80;21020;-40
2021/09/04 04:53:13;;;;;;;3.90;2.30;;;;;;;14.73;64.80;99166.92;1761076;80;21049;-40
2021/09/04 04:55:40;;;;;;;3.65;2.40;;;;;;;14.68;64.82;99167.32;1769872;80;21814;-40
2021/09/04 04:58:07;;;;;;;3.30;2.20;;;;;;;14.62;65.12;99171.63;1757580;80;21503;-40
2021/09/04 05:00:35;;;;;;;3.95;2.17;;;;;;;14.60;65.12;99171.23;1765603;80;21009;-40
2021/09/04 05:03:03;;;;;;;2.20;1.95;;;;;;;14.55;65.14;99168.89;1777225;80;21020;-40
2021/09/04 05:05:31;;;;;;;4.30;2.15;;;;;;;14.61;65.28;99181.77;1776275;80;21021;-40
2021/09/04 05:07:59;;;;;;;3.25;2.35;;;;;;;14.61;65.06;99184.48;1761046;80;21109;-40
2021/09/04 05:10:28;;;;;;;3.85;2.22;;;;;;;14.60;65.27;99191.69;1766922;80;21329;-40
2021/09/04 05:12:56;;;;;;;2.50;2.25;;;;;;;14.56;65.11;99185.46;1769482;80;21008;-40
2021/09/04 05:15:23;;;;;;;2.35;2.02;;;;;;;14.56;65.21;99200.47;1772443;80;21049;-40
2021/09/04 05:17:51;;;;;;;3.20;1.98;;;;;;;14.58;65.29;99207.66;1769008;80;21021;-40
2021/09/04 05:20:18;;;;;;;3.95;2.33;;;;;;;14.67;65.22;99208.05;1763822;80;21121;-40
2021/09/04 05:22:47;;;;;;;3.45;2.20;;;;;;;14.75;65.06;99206.89;1773277;80;20961;-40
2021/09/04 05:25:17;;;;;;;2.77;2.02;;;;;;;14.77;64.72;99209.41;1773645;80;20973;-40
2021/09/04 05:27:45;;;;;;;3.55;2.10;;;;;;;14.83;64.56;99208.44;1772062;80;21072;-40
2021/09/04 05:30:12;;;;;;;3.65;2.00;;;;;;;14.86;63.93;99214.50;1765240;80;21041;-40
2021/09/04 05:32:39;;;;;;;2.50;2.00;;;;;;;14.82;62.69;99212.91;1765051;81;21051;-40
2021/09/04 05:35:07;;;;;;;4.62;2.00;;;;;;;14.76;62.52;99220.73;1768585;81;21001;-40
2021/09/04 05:37:34;;;;;;;4.83;1.80;;;;;;;14.70;62.31;99220.92;1768976;81;20950;-40
2021/09/04 05:40:00;;;;;;;3.42;2.15;;;;;;;14.66;62.31;99220.94;1769967;80;21574;-40
2021/09/04 05:42:27;;;;;;;4.12;1.98;;;;;;;14.62;61.36;99218.77;1746039;80;21044;-40
2021/09/04 05:44:55;;;;;;;3.40;1.85;;;;;;;14.61;61.54;99218.59;1743398;82;21955;-40
2021/09/04 05:47:23;;;;;;;3.77;1.80;;;;;;;14.60;61.69;99223.85;1743101;82;21530;-40
2021/09/04 05:49:49;;;;;;;3.27;2.10;;;;;;;14.61;60.90;99230.09;1758796;80;21060;-40
2021/09/04 05:52:18;;;;;;;2.42;1.67;;;;;;;14.62;60.86;99230.29;1773728;80;21008;-40
2021/09/04 05:54:45;;;;;;;3.52;1.95;;;;;;;14.67;60.96;99229.88;1766688;80;21879;-40
2021/09/04 05:57:12;;;;;;;5.40;2.05;;;;;;;14.70;59.69;99228.53;1773686;80;21132;-40
2021/09/04 05:59:38;;;;;;;2.77;1.70;;;;;;;14.70;59.51;99229.11;1774323;80;20976;-40
2021/09/04 06:02:05;;;;;;;4.90;1.67;;;;;;;14.67;59.24;99244.30;1774363;80;20977;-40
2021/09/04 06:04:36;;;;;;;3.30;1.82;;;;;;;14.61;58.74;99244.52;1774372;80;21025;-40
2021/09/04 06:07:05;;;;;;;3.08;1.62;;;;;;;14.57;58.55;99253.87;1774347;80;20977;-40
2021/09/04 06:09:33;;;;;;;4.00;1.95;;;;;;;14.54;58.91;99247.80;1774378;80;20930;-40
2021/09/04 06:12:00;;;;;;;2.20;1.60;;;;;;;14.55;59.25;99252.88;1774125;80;21012;-40
2021/09/04 06:14:27;;;;;;;2.77;1.70;;;;;;;14.60;58.84;99257.17;1774337;80;21037;-40
2021/09/04 06:16:55;;;;;;;3.05;1.70;;;;;;;14.63;59.21;99250.34;1774221;80;20925;-40
2021/09/04 06:19:23;;;;;;;3.12;2.25;;;;;;;14.68;59.14;99256.00;1765975;80;21104;-40
2021/09/04 06:21:51;;;;;;;2.85;1.50;;;;;;;14.72;58.35;99256.77;1751911;80;20976;-40
2021/09/04 06:24:19;;;;;;;3.05;1.70;;;;;;;14.73;58.79;99256.39;1751043;82;21064;-40
2021/09/04 06:26:45;;;;;;;5.30;1.80;;;;;;;14.78;58.97;99256.01;1750995;82;21040;-40
2021/09/04 06:29:12;;;;;;;2.72;2.05;;;;;;;14.87;58.63;99260.29;1751087;82;21519;-40
2021/09/04 06:31:38;;;;;;;2.83;2.00;;;;;;;14.91;57.78;99260.48;1775548;80;21566;-40
2021/09/04 06:34:05;;;;;;;2.83;1.75;;;;;;;14.92;58.32;99268.87;1781933;80;21091;-40
2021/09/04 06:36:32;;;;;;;2.37;1.60;;;;;;;14.91;58.22;99267.30;1763935;80;21024;-40
2021/09/04 06:38:59;;;;;;;3.15;1.75;;;;;;;14.96;58.42;99271.01;1746160;80;20977;-40
2021/09/04 06:41:25;;;;;;;2.20;1.62;;;;;;;15.02;57.71;99274.91;1751818;80;21033;-40
2021/09/04 06:43:52;;;;;;;3.35;2.00;;;;;;;15.08;58.09;99282.91;1762254;80;21046;-40
2021/09/04 06:46:18;;;;;;;3.35;1.80;;;;;;;15.15;58.53;99284.87;1781742;80;21140;-40
2021/09/04 06:48:46;;;;;;;3.98;1.70;;;;;;;15.26;58.23;99287.56;1782012;80;21020;-40
2021/09/04 06:51:13;;;;;;;4.37;1.70;;;;;;;15.37;58.00;99285.61;1782145;80;20977;-40
2021/09/04 06:53:41;;;;;;;3.02;1.85;;;;;;;15.49;57.59;99294.16;1762709;80;21024;-40
2021/09/04 06:56:08;;;;;;;3.98;2.17;;;;;;;15.54;56.48;99289.69;1742311;82;21049;-40
2021/09/04 06:58:36;;;;;;;3.92;1.95;;;;;;;15.60;57.06;99303.73;1715892;82;21167;-40
2021/09/04 07:01:02;;;;;;;4.17;1.87;;;;;;;15.69;57.21;99304.69;1721977;82;21021;-40
2021/09/04 07:03:29;;;;;;;4.72;2.02;;;;;;;15.79;57.28;99295.09;1766634;81;20998;-40
2021/09/04 07:05:56;;;;;;;4.40;2.15;;;;;;;15.87;56.56;99304.84;1752830;81;21035;-40
2021/09/04 07:08:22;;;;;;;2.30;1.90;;;;;;;15.88;56.42;99302.28;1750759;81;21269;-40
2021/09/04 07:10:49;;;;;;;4.05;1.67;;;;;;;15.89;55.93;99302.48;1750927;82;21095;-40
2021/09/04 07:13:16;;;;;;;3.87;1.82;;;;;;;15.91;54.94;99310.30;1739325;81;20954;-40
2021/09/04 07:15:43;;;;;;;2.50;1.50;;;;;;;15.92;54.54;99307.17;1736363;82;21007;-40
2021/09/04 07:18:10;;;;;;;4.60;1.77;;;;;;;15.96;53.75;99312.04;1736319;82;21635;-40
2021/09/04 07:20:37;;;;;;;2.12;1.65;;;;;;;16.00;53.40;99317.48;1756306;80;21021;-40
2021/09/04 07:23:03;;;;;;;2.58;1.67;;;;;;;16.04;52.86;99313.56;1766774;81;21879;-40
2021/09/04 07:25:30;;;;;;;3.60;1.50;;;;;;;16.12;52.75;99321.75;1766645;81;21077;-40
2021/09/04 07:27:57;;;;;;;2.17;1.70;;;;;;;16.20;53.15;99326.00;1766844;81;21002;-40
2021/09/04 07:30:24;;;;;;;2.75;1.55;;;;;;;16.30;53.13;99322.44;1766846;81;21100;-40
2021/09/04 07:32:51;;;;;;;2.50;1.52;;;;;;;16.38;52.89;99318.48;1766757;81;20997;-40
2021/09/04 07:35:17;;;;;;;2.50;1.60;;;;;;;16.47;52.96;99323.70;1766803;81;21114;-40
2021/09/04 07:37:44;;;;;;;2.65;1.50;;;;;;;16.59;52.87;99323.88;1688558;85;21028;-40
2021/09/04 07:40:12;;;;;;;1.85;1.37;;;;;;;16.68;52.97;99322.84;1737583;82;20965;-40
2021/09/04 07:42:38;;;;;;;1.87;1.37;;;;;;;16.75;52.05;99328.26;1737548;82;21024;-40
2021/09/04 07:45:06;;;;;;;2.10;1.40;;;;;;;16.74;51.45;99326.72;1720666;82;21500;-40
2021/09/04 07:47:33;;;;;;;3.42;1.52;;;;;;;16.75;51.41;99326.89;1713396;82;21806;-40
2021/09/04 07:50:00;;;;;;;3.10;1.72;;;;;;;16.80;51.06;99327.05;1708065;84;21023;-40
2021/09/04 07:52:26;;;;;;;2.15;1.50;;;;;;;16.87;51.20;99333.86;1708298;84;21005;-40
2021/09/04 07:54:53;;;;;;;3.87;1.60;;;;;;;16.91;50.84;99335.98;1708325;84;21009;-40
2021/09/04 07:57:19;;;;;;;1.92;1.40;;;;;;;16.97;49.65;99332.22;1711050;83;21583;-40
2021/09/04 07:59:46;;;;;;;1.90;1.30;;;;;;;17.06;49.13;99329.80;1717953;83;21111;-40
2021/09/04 08:02:13;;;;;;;1.65;1.20;;;;;;;17.17;50.08;99339.51;1716891;83;21029;-40
2021/09/04 08:04:39;;;;;;;1.52;1.15;;;;;;;17.27;48.86;99337.27;1746201;81;21536;-40
2021/09/04 08:07:06;;;;;;;2.55;1.50;;;;;;;17.33;48.96;99336.25;1736325;82;22052;-40
2021/09/04 08:09:33;;;;;;;2.58;1.30;;;;;;;17.35;48.79;99337.98;1736192;82;21035;-40
2021/09/04 08:12:01;;;;;;;2.10;1.17;;;;;;;17.35;47.52;99333.28;1736255;82;21031;-40
2021/09/04 08:14:28;;;;;;;1.95;1.40;;;;;;;17.34;47.81;99335.83;1763901;81;21040;-40
2021/09/04 08:16:54;;;;;;;1.72;1.25;;;;;;;17.34;46.67;99332.30;1766886;81;21090;-40
2021/09/04 08:19:21;;;;;;;1.60;1.15;;;;;;;17.36;47.16;99326.62;1766766;81;20973;-40
2021/09/04 08:21:48;;;;;;;1.75;1.30;;;;;;;17.49;47.27;99326.09;1766877;81;21009;-40
2021/09/04 08:24:14;;;;;;;2.08;1.32;;;;;;;17.66;47.72;99332.05;1766780;81;21121;-40
2021/09/04 08:26:42;;;;;;;2.20;1.22;;;;;;;17.89;47.10;99334.14;1766769;81;21002;-40
2021/09/04 08:29:10;;;;;;;2.08;1.10;;;;;;;18.03;45.74;99328.49;1766885;80;20998;-40
2021/09/04 08:31:37;;;;;;;1.98;1.15;;;;;;;18.10;44.41;99329.80;1766051;81;21033;-40
2021/09/04 08:34:03;;;;;;;1.72;1.20;;;;;;;18.09;43.44;99326.86;1763058;81;21006;-40
2021/09/04 08:36:32;;;;;;;3.15;1.20;;;;;;;18.11;43.92;99328.58;1759348;80;21272;-40
2021/09/04 08:38:58;;;;;;;2.10;1.20;;;;;;;18.13;43.20;99330.34;1756400;81;21614;-40
2021/09/04 08:41:25;;;;;;;1.90;1.17;;;;;;;18.22;43.07;99330.02;1756475;81;21793;-40
2021/09/04 08:43:53;;;;;;;2.35;1.20;;;;;;;18.30;41.66;99329.32;1756667;81;21497;-40
2021/09/04 08:46:19;;;;;;;7.55;1.30;;;;;;;18.27;41.62;99318.40;1758979;80;21069;-40
2021/09/04 08:48:46;;;;;;;3.47;1.52;;;;;;;18.20;41.14;99320.03;1766644;81;21137;-40
2021/09/04 08:51:13;;;;;;;1.92;1.15;;;;;;;18.21;40.55;99331.20;1766727;81;21512;-40
2021/09/04 08:53:40;;;;;;;2.25;1.30;;;;;;;18.29;40.61;99327.02;1765083;81;21060;-40
2021/09/04 08:56:09;;;;;;;1.82;1.00;;;;;;;18.35;41.03;99319.26;1765763;81;21500;-40
2021/09/04 08:58:37;;;;;;;1.65;1.30;;;;;;;18.39;40.64;99322.77;1779316;80;21502;-40
2021/09/04 09:01:23;;;;;;;1.32;1.00;;;;;;;18.36;39.78;99324.16;1782267;80;21507;-40
2021/09/04 09:03:50;;;;;;;1.98;1.30;;;;;;;18.39;41.14;99326.09;1782151;80;20886;-40
2021/09/04 09:06:36;;;;;;;1.52;1.10;;;;;;;18.47;41.09;99323.42;1782229;80;21008;-40
2021/09/04 09:09:24;;;;;;;1.57;1.20;;;;;;;18.58;41.22;99327.63;1745143;80;21499;-40
2021/09/04 09:11:53;;;;;;;1.47;1.17;;;;;;;18.61;40.33;99333.65;1779634;80;21069;-40
2021/09/04 09:14:20;;;;;;;2.30;1.20;;;;;;;18.52;40.06;99335.33;1770763;80;21106;-41
2021/09/04 09:16:52;;;;;;;2.87;1.20;;;;;;;18.46;41.02;99335.00;1781014;80;21036;-41
2021/09/04 09:19:24;;;;;;;2.27;1.20;;;;;;;18.46;41.83;99342.45;1778039;80;20913;-41
2021/09/04 09:21:54;;;;;;;1.70;1.10;;;;;;;18.50;41.07;99341.22;1770648;80;20973;-41
2021/09/04 09:24:20;;;;;;;1.85;1.32;;;;;;;18.48;40.43;99340.87;1758378;80;21013;-41
2021/09/04 09:27:01;;;;;;;1.32;1.00;;;;;;;18.44;40.85;99340.73;1778640;80;21116;-41
2021/09/04 09:29:33;;;;;;;1.90;1.07;;;;;;;18.51;41.34;99335.91;1752423;80;21019;-41
2021/09/04 09:32:11;;;;;;;2.00;1.02;;;;;;;18.65;40.66;99343.20;1784050;80;21615;-41
2021/09/04 09:34:44;;;;;;;2.10;1.02;;;;;;;18.83;40.85;99345.71;1782097;80;21002;-41
2021/09/04 09:37:13;;;;;;;3.90;1.40;;;;;;;19.03;39.56;99347.94;1754612;80;21020;-41
2021/09/04 09:39:42;;;;;;;1.70;1.40;;;;;;;19.20;39.28;99341.39;1761088;80;21172;-41
2021/09/04 09:42:11;;;;;;;1.72;1.17;;;;;;;19.36;38.03;99341.52;1780810;80;21507;-41
2021/09/04 09:44:39;;;;;;;4.05;1.10;;;;;;;19.51;38.39;99342.84;1782214;80;20930;-41
2021/09/04 09:47:09;;;;;;;2.70;1.20;;;;;;;19.75;38.17;99353.84;1774172;80;20933;-42
2021/09/04 09:49:44;;;;;;;1.50;1.30;;;;;;;19.93;37.41;99353.68;1778917;80;21534;-41
2021/09/04 09:52:14;;;;;;;2.12;1.15;;;;;;;19.97;36.92;99356.35;1781434;80;21514;-41
2021/09/04 09:54:41;;;;;;;;;;;;;;;19.81;36.11;99348.00;1784477;80;21506;-41
2021/09/04 09:57:10;;;;;;;1.65;1.20;;;;;;;19.65;36.68;99352.05;1770647;80;20172;-43
2021/09/04 09:59:44;;;;;;;2.27;1.50;;;;;;;19.53;37.73;99350.08;1772345;80;20997;-41
2021/09/04 10:02:13;;;;;;;2.92;1.32;;;;;;;19.56;37.40;99349.83;1757724;80;21050;-41
2021/09/04 10:04:41;;;;;;;2.98;1.80;;;;;;;19.52;37.21;99348.52;1705442;84;21110;-41
2021/09/04 10:07:09;;;;;;;1.75;1.30;;;;;;;19.52;37.35;99355.40;1760427;80;21049;-41
2021/09/04 10:09:37;;;;;;;1.52;1.20;;;;;;;19.58;37.52;99352.95;1775956;80;21041;-41
2021/09/04 10:12:04;;;;;;;2.17;1.27;;;;;;;19.73;37.26;99352.09;1754013;80;21034;-41
2021/09/04 10:14:31;;;;;;;1.82;1.15;;;;;;;19.95;37.64;99353.23;1773750;80;21057;-41
2021/09/04 10:17:02;;;;;;;1.35;1.20;;;;;;;20.25;37.20;99346.16;1773623;80;21152;-41
2021/09/04 10:19:31;;;;;;;1.62;1.20;;;;;;;20.50;36.86;99347.04;1777933;80;21011;-42
2021/09/04 10:22:03;;;;;;;1.35;1.15;;;;;;;20.73;36.71;99339.25;1775909;80;20962;-41
2021/09/04 10:24:49;;;;;;;;;;;;;;;21.04;35.98;99341.88;1775230;80;21025;-42
2021/09/04 10:27:37;;;;;;;3.75;1.52;;;;;;;21.39;34.79;99344.40;1764038;80;20168;-41
2021/09/04 10:30:33;;;;;;;5.10;3.30;;;;;;;21.68;33.86;99344.44;1764103;80;21478;-42
2021/09/04 10:33:18;;;;;;;4.80;2.65;;;;;;;21.94;32.91;99342.56;1753619;80;21037;-42
2021/09/04 10:35:54;;;;;;;2.52;1.52;;;;;;;22.20;33.31;99346.19;1770751;80;21026;-41
2021/09/04 10:38:28;;;;;;;1.67;1.37;;;;;;;22.53;33.08;99350.34;1776361;80;21022;-41
2021/09/04 10:41:20;;;;;;;2.52;1.50;;;;;;;22.68;32.01;99350.09;1773622;80;21026;-41
2021/09/04 10:43:52;;;;;;;1.72;1.17;;;;;;;22.50;32.47;99360.91;1773425;80;21131;-41
2021/09/04 10:46:19;;;;;;;3.05;1.10;;;;;;;22.22;33.76;99360.35;1761715;80;21068;-41
2021/09/04 10:48:59;;;;;;;1.60;1.20;;;;;;;22.16;33.07;99365.63;1776631;80;21075;-41
2021/09/04 10:51:48;;;;;;;3.67;1.50;;;;;;;22.26;33.19;99372.06;1773184;80;21072;-41
2021/09/04 10:54:46;;;;;;;1.80;1.30;;;;;;;22.38;32.80;99370.70;1773905;80;20997;-41
2021/09/04 10:57:15;;;;;;;1.98;1.65;;;;;;;22.47;32.21;99368.67;1742416;80;21810;-41
2021/09/04 11:00:11;;;;;;;2.52;1.30;;;;;;;22.64;32.57;99366.00;1780795;80;21013;-42
2021/09/04 11:02:53;;;;;;;2.30;1.60;;;;;;;22.99;31.86;99369.70;1711799;82;20982;-41
2021/09/04 11:05:49;;;;;;;3.12;1.70;;;;;;;23.32;31.44;99371.60;1770874;80;21033;-42
2021/09/04 11:08:30;;;;;;;2.25;1.20;;;;;;;23.38;30.73;99369.19;1773983;80;21044;-41
2021/09/04 11:11:52;;;;;;;4.17;1.70;;;;;;;23.08;30.14;99373.17;1857991;75;22427;-41
2021/09/04 11:14:23;;;;;;;1.98;1.25;;;;;;;22.71;30.55;99361.66;1801852;78;20952;-41
2021/09/04 11:16:55;;;;;;;3.75;1.20;;;;;;;22.60;30.90;99362.58;1829739;77;21730;-41
2021/09/04 11:19:33;;;;;;;1.92;1.20;;;;;;;22.65;30.48;99365.40;1805133;77;20995;-41
2021/09/04 11:22:11;;;;;;;1.40;1.07;;;;;;;22.83;30.50;99369.20;1801185;78;20913;-41
2021/09/04 11:24:41;;;;;;;2.30;1.80;;;;;;;23.15;30.18;99359.88;1806137;78;20972;-41
2021/09/04 11:27:12;;;;;;;3.15;2.10;;;;;;;23.51;29.44;99367.83;1822270;77;20908;-41
2021/09/04 11:29:44;;;;;;;;;;;;;;;23.63;29.28;99364.24;1841012;77;21107;-41
2021/09/04 11:32:12;;;;;;;2.52;1.47;;;;;;;23.55;28.79;99368.48;1849330;77;20085;-41
2021/09/04 11:34:53;;;;;;;1.30;1.20;;;;;;;23.12;29.70;99371.84;1836630;77;21517;-41
2021/09/04 11:37:32;;;;;;;2.33;1.45;;;;;;;22.89;29.92;99361.13;1829143;77;20997;-41
2021/09/04 11:40:17;;;;;;;2.80;1.22;;;;;;;22.58;30.79;99359.47;1826184;78;20985;-41
2021/09/04 11:42:49;;;;;;;3.20;1.20;;;;;;;22.29;30.18;99360.13;1847990;77;21058;-41